Time;durP1;ratioP1;P1;durP2;ratioP2;P2;SDS_P1;SDS_P2;PMS_P1;PMS_P2;Temp;Humidity;BMP_temperature;BMP_pressure;BME280_temperature;BME280_humidity;BME280_pressure;Samples;Min_cycle;Max_cycle;Signal;HPM_P1;HPM_P2
2023/12/06 00:00:25;;;;;;;25.27;21.13;;;17.10;99.90;;;;;;4593044;19;20029;-77
2023/12/06 00:02:19;;;;;;;28.08;21.85;;;17.10;99.90;;;;;;4592804;19;20018;-77
2023/12/06 00:03:55;;;;;;;27.30;20.40;;;17.20;99.90;;;;;;4592882;19;20006;-77
2023/12/06 00:05:32;;;;;;;25.55;20.75;;;17.10;99.90;;;;;;4591664;19;20003;-77
2023/12/06 00:07:06;;;;;;;26.05;20.83;;;17.20;99.90;;;;;;4591880;19;20006;-77
2023/12/06 00:08:40;;;;;;;24.73;20.17;;;17.20;99.90;;;;;;4591419;19;20010;-77
2023/12/06 00:10:15;;;;;;;23.95;20.05;;;17.20;99.90;;;;;;4591537;19;20075;-77
2023/12/06 00:11:50;;;;;;;24.50;20.75;;;17.20;99.90;;;;;;4592621;19;20003;-77
2023/12/06 00:13:24;;;;;;;25.73;21.25;;;17.20;99.90;;;;;;4592638;19;20318;-77
2023/12/06 00:15:00;;;;;;;23.23;19.60;;;17.20;99.90;;;;;;4592778;19;20318;-78
2023/12/06 00:16:35;;;;;;;22.92;20.08;;;17.20;99.90;;;;;;4592876;19;20013;-77
2023/12/06 00:18:09;;;;;;;25.80;21.20;;;17.20;99.90;;;;;;4592912;19;20002;-77
2023/12/06 00:19:45;;;;;;;24.50;19.55;;;17.20;99.90;;;;;;4592886;19;20317;-77
2023/12/06 00:21:19;;;;;;;23.00;19.00;;;17.20;99.90;;;;;;4592505;19;20002;-77
2023/12/06 00:22:53;;;;;;;22.38;19.17;;;17.20;99.90;;;;;;4592729;19;19999;-77
2023/12/06 00:24:30;;;;;;;22.33;19.73;;;17.20;99.90;;;;;;4591269;19;20028;-77
2023/12/06 00:26:05;;;;;;;21.75;17.65;;;17.20;99.90;;;;;;4591389;19;20006;-77
2023/12/06 00:27:40;;;;;;;22.17;18.42;;;17.20;99.90;;;;;;4592574;19;20006;-77
2023/12/06 00:29:15;;;;;;;23.38;19.30;;;17.20;99.90;;;;;;4591289;19;20013;-77
2023/12/06 00:30:49;;;;;;;21.67;18.58;;;17.20;99.90;;;;;;4592155;19;20441;-77
2023/12/06 00:32:24;;;;;;;23.60;19.05;;;17.20;99.90;;;;;;4592481;19;20058;-77
2023/12/06 00:34:00;;;;;;;21.00;17.55;;;17.20;99.90;;;;;;4591160;19;20007;-77
2023/12/06 00:35:34;;;;;;;21.55;17.83;;;17.20;99.90;;;;;;4591846;19;20422;-77
2023/12/06 00:37:10;;;;;;;19.70;17.08;;;17.20;99.90;;;;;;4592385;19;20009;-77
2023/12/06 00:38:46;;;;;;;22.00;18.92;;;17.20;99.90;;;;;;4592691;19;20013;-77
2023/12/06 00:40:21;;;;;;;19.35;16.27;;;17.30;99.90;;;;;;4592313;19;20314;-77
2023/12/06 00:41:55;;;;;;;21.33;17.60;;;17.20;99.90;;;;;;4592354;19;19994;-77
2023/12/06 00:43:31;;;;;;;18.95;16.73;;;17.20;99.90;;;;;;4591033;19;19999;-77
2023/12/06 00:45:05;;;;;;;21.00;17.08;;;17.20;99.90;;;;;;4591557;19;19998;-77
2023/12/06 00:46:39;;;;;;;20.17;17.48;;;17.20;99.90;;;;;;4590934;19;19999;-77
2023/12/06 00:48:15;;;;;;;21.98;17.02;;;17.20;99.90;;;;;;4591958;19;20376;-77
2023/12/06 00:49:49;;;;;;;19.35;17.23;;;17.20;99.90;;;;;;4590820;19;20010;-78
2023/12/06 00:51:24;;;;;;;19.15;16.33;;;17.20;99.90;;;;;;4591777;19;20011;-77
2023/12/06 00:53:00;;;;;;;18.88;16.00;;;17.20;99.90;;;;;;4592474;19;20421;-77
2023/12/06 00:54:34;;;;;;;20.13;17.15;;;17.30;99.90;;;;;;4591979;19;20013;-77
2023/12/06 00:56:15;;;;;;;19.45;16.30;;;17.30;99.90;;;;;;4591449;19;19991;-77
2023/12/06 00:57:50;;;;;;;18.13;15.98;;;17.20;99.90;;;;;;4592425;19;20024;-77
2023/12/06 00:59:26;;;;;;;19.83;16.70;;;17.20;99.90;;;;;;4592017;19;19999;-77
2023/12/06 01:18:50;;;;;;;19.30;15.65;;;17.10;99.90;;;;;;4555860;19;20002;-78
2023/12/06 01:20:26;;;;;;;17.38;13.85;;;17.10;99.90;;;;;;4596438;19;20007;-77
2023/12/06 01:22:01;;;;;;;19.13;15.23;;;17.10;99.90;;;;;;4596268;19;20084;-77
2023/12/06 01:23:35;;;;;;;18.10;14.90;;;17.10;99.90;;;;;;4596583;19;19999;-77
2023/12/06 01:25:11;;;;;;;15.30;13.60;;;17.10;99.90;;;;;;4595597;19;19998;-77
2023/12/06 01:26:46;;;;;;;15.95;13.88;;;17.10;99.90;;;;;;4596520;19;20006;-77
2023/12/06 01:28:21;;;;;;;16.63;14.40;;;17.10;99.90;;;;;;4596274;19;20003;-77
2023/12/06 01:29:56;;;;;;;16.45;14.60;;;17.10;99.90;;;;;;4594663;19;20010;-77
2023/12/06 01:31:30;;;;;;;17.88;14.57;;;17.10;99.90;;;;;;4596435;19;19998;-77
2023/12/06 01:33:05;;;;;;;17.15;14.45;;;17.10;99.90;;;;;;4596399;19;20316;-77
2023/12/06 01:34:40;;;;;;;16.77;14.98;;;17.20;99.90;;;;;;4596208;19;19999;-77
2023/12/06 01:36:15;;;;;;;16.70;14.43;;;17.10;99.90;;;;;;4596121;19;20002;-77
2023/12/06 01:37:49;;;;;;;15.77;13.93;;;17.20;99.90;;;;;;4596066;19;20001;-77
2023/12/06 01:39:25;;;;;;;16.55;13.98;;;17.20;99.90;;;;;;4593759;19;20010;-77
2023/12/06 01:40:59;;;;;;;17.65;14.32;;;17.20;99.90;;;;;;4595890;19;20443;-77
2023/12/06 01:42:33;;;;;;;16.63;14.43;;;17.20;99.90;;;;;;4595962;19;19998;-77
2023/12/06 01:44:09;;;;;;;18.40;14.27;;;17.20;99.90;;;;;;4594842;19;20469;-77
2023/12/06 01:45:43;;;;;;;16.08;13.23;;;17.20;99.90;;;;;;4593402;19;20007;-77
2023/12/06 01:47:21;;;;;;;15.73;13.02;;;17.20;99.90;;;;;;4595471;19;20096;-76
2023/12/06 01:48:56;;;;;;;14.60;12.10;;;17.20;99.90;;;;;;4594049;19;20026;-77
2023/12/06 01:50:30;;;;;;;16.10;13.88;;;17.20;99.90;;;;;;4595367;19;20006;-77
2023/12/06 01:52:05;;;;;;;15.20;13.48;;;17.20;99.90;;;;;;4595723;19;20010;-76
2023/12/06 01:53:40;;;;;;;15.63;12.73;;;17.20;99.90;;;;;;4595636;19;20420;-76
2023/12/06 01:55:14;;;;;;;15.77;13.35;;;17.20;99.90;;;;;;4595660;19;20006;-77
2023/12/06 01:56:48;;;;;;;14.98;13.38;;;17.20;99.90;;;;;;4594209;19;19998;-77
2023/12/06 01:58:23;;;;;;;15.65;12.57;;;17.20;99.90;;;;;;4596004;19;20006;-77
2023/12/06 01:59:58;;;;;;;15.32;12.90;;;17.20;99.90;;;;;;4594017;19;20003;-76
2023/12/06 02:01:32;;;;;;;17.40;12.95;;;17.30;99.90;;;;;;4595813;19;20006;-76
2023/12/06 02:03:08;;;;;;;14.25;12.73;;;17.30;99.90;;;;;;4594468;19;20035;-76
2023/12/06 02:04:42;;;;;;;13.93;11.75;;;17.20;99.90;;;;;;4594834;19;20028;-76
2023/12/06 02:06:16;;;;;;;14.82;12.88;;;17.30;99.90;;;;;;4595679;19;20002;-76
2023/12/06 02:07:52;;;;;;;14.90;12.50;;;17.30;99.90;;;;;;4595513;19;20379;-76
2023/12/06 02:09:28;;;;;;;14.27;11.80;;;17.30;99.90;;;;;;4594652;19;20005;-76
2023/12/06 02:11:01;;;;;;;15.65;12.20;;;17.30;99.90;;;;;;4593873;19;20090;-77
2023/12/06 02:12:38;;;;;;;15.18;12.52;;;17.30;99.90;;;;;;4593583;19;19999;-76
2023/12/06 02:14:13;;;;;;;14.65;11.10;;;17.30;99.90;;;;;;4595267;19;20008;-76
2023/12/06 02:15:48;;;;;;;14.25;12.52;;;17.30;99.90;;;;;;4595234;19;20001;-76
2023/12/06 02:17:24;;;;;;;14.60;12.27;;;17.30;99.90;;;;;;4595289;19;20019;-76
2023/12/06 02:18:58;;;;;;;13.48;11.80;;;17.30;99.90;;;;;;4594295;19;19999;-77
2023/12/06 02:20:32;;;;;;;14.80;12.07;;;17.30;99.90;;;;;;4593894;19;20026;-76
2023/12/06 02:22:07;;;;;;;13.50;11.85;;;17.30;99.90;;;;;;4593879;19;20010;-76
2023/12/06 02:23:41;;;;;;;13.20;11.18;;;17.30;99.90;;;;;;4595028;19;19995;-77
2023/12/06 02:25:18;;;;;;;12.85;11.48;;;17.30;99.90;;;;;;4594594;19;19999;-77
2023/12/06 02:26:54;;;;;;;13.38;11.48;;;17.30;99.90;;;;;;4593763;19;20449;-76
2023/12/06 02:28:28;;;;;;;12.60;10.55;;;17.40;99.90;;;;;;4594660;19;19998;-76
2023/12/06 02:30:03;;;;;;;12.27;10.57;;;17.30;99.90;;;;;;4593416;19;19998;-76
2023/12/06 02:31:38;;;;;;;13.15;11.52;;;17.30;99.90;;;;;;4595045;19;20066;-77
2023/12/06 02:33:12;;;;;;;13.43;11.38;;;17.30;99.90;;;;;;4593880;19;20002;-76
2023/12/06 02:34:47;;;;;;;14.32;10.88;;;17.30;99.90;;;;;;4594759;19;20081;-76
2023/12/06 02:36:23;;;;;;;14.25;11.63;;;17.30;99.90;;;;;;4593829;19;20074;-77
2023/12/06 02:37:58;;;;;;;13.73;11.02;;;17.30;99.90;;;;;;4593457;19;20102;-76
2023/12/06 02:39:36;;;;;;;13.18;11.27;;;17.40;99.90;;;;;;4592227;19;20373;-76
2023/12/06 02:41:12;;;;;;;14.68;11.60;;;17.40;99.90;;;;;;4593405;19;20020;-77
2023/12/06 02:42:46;;;;;;;16.83;12.45;;;17.40;99.90;;;;;;4593360;19;20002;-76
2023/12/06 02:44:21;;;;;;;14.15;12.30;;;17.40;99.90;;;;;;4594533;19;20007;-77
2023/12/06 02:45:58;;;;;;;13.93;11.45;;;17.40;99.90;;;;;;4592303;19;20024;-76
2023/12/06 02:47:33;;;;;;;12.35;10.43;;;17.40;99.90;;;;;;4594321;19;20017;-77
2023/12/06 02:49:07;;;;;;;13.05;10.50;;;17.40;99.90;;;;;;4592646;19;20003;-77
2023/12/06 02:50:42;;;;;;;12.68;11.07;;;17.30;99.90;;;;;;4594522;19;20014;-76
2023/12/06 02:52:17;;;;;;;13.48;10.68;;;17.30;99.90;;;;;;4594450;19;20002;-76
2023/12/06 02:53:51;;;;;;;12.90;10.82;;;17.20;99.90;;;;;;4594425;19;20006;-76
2023/12/06 02:55:27;;;;;;;14.18;10.55;;;17.20;99.90;;;;;;4594448;19;20002;-76
2023/12/06 02:57:02;;;;;;;12.57;10.40;;;17.20;99.90;;;;;;4594649;19;20006;-76
2023/12/06 02:58:36;;;;;;;12.07;10.40;;;17.10;99.90;;;;;;4594314;19;19998;-76
2023/12/06 03:00:12;;;;;;;14.15;10.60;;;17.00;99.90;;;;;;4594702;19;20007;-76
2023/12/06 03:01:48;;;;;;;13.88;10.57;;;16.90;99.90;;;;;;4594297;19;20009;-76
2023/12/06 03:03:21;;;;;;;12.02;10.20;;;16.90;99.90;;;;;;4594541;19;20002;-77
2023/12/06 03:04:59;;;;;;;13.02;10.40;;;17.00;99.90;;;;;;4593836;19;20430;-77
2023/12/06 03:06:34;;;;;;;11.23;9.07;;;17.30;99.90;;;;;;4594186;19;19995;-77
2023/12/06 03:08:14;;;;;;;11.43;9.38;;;17.50;99.90;;;;;;4594469;19;20022;-77
2023/12/06 03:09:50;;;;;;;11.35;9.43;;;17.80;99.90;;;;;;4593358;19;20006;-77
2023/12/06 03:11:24;;;;;;;12.48;9.45;;;18.10;99.90;;;;;;4594162;19;19995;-77
2023/12/06 03:12:59;;;;;;;13.52;8.98;;;18.30;99.90;;;;;;4592692;19;20015;-77
2023/12/06 03:14:34;;;;;;;11.93;9.43;;;18.60;99.90;;;;;;4593787;19;20010;-77
2023/12/06 03:16:08;;;;;;;11.10;9.15;;;18.80;99.90;;;;;;4594078;19;19999;-77
2023/12/06 03:18:46;;;;;;;13.75;10.40;;;19.10;99.90;;;;;;4612621;19;20714;-76
2023/12/06 03:20:21;;;;;;;13.90;10.68;;;19.20;99.90;;;;;;4614767;19;20293;-76
2023/12/06 03:21:56;;;;;;;12.68;9.10;;;19.10;99.90;;;;;;4612277;19;20006;-77
2023/12/06 03:23:32;;;;;;;13.07;10.13;;;19.10;99.90;;;;;;4613466;19;20002;-76
2023/12/06 03:25:08;;;;;;;13.27;9.75;;;19.10;99.90;;;;;;4614978;19;20421;-80
2023/12/06 03:26:42;;;;;;;11.73;9.73;;;19.10;99.90;;;;;;4614799;19;20002;-79
2023/12/06 03:28:16;;;;;;;12.15;9.52;;;19.20;99.90;;;;;;4614786;19;20311;-80
2023/12/06 03:29:52;;;;;;;14.32;9.63;;;19.30;99.90;;;;;;4613090;19;20430;-77
2023/12/06 03:31:26;;;;;;;12.57;9.48;;;19.40;99.90;;;;;;4614721;19;20439;-77
2023/12/06 03:33:00;;;;;;;14.63;9.77;;;19.30;99.90;;;;;;4614424;19;20013;-77
2023/12/06 03:34:36;;;;;;;11.93;9.52;;;19.40;99.90;;;;;;4613156;19;20282;-78
2023/12/06 03:36:11;;;;;;;13.30;10.10;;;19.40;99.90;;;;;;4614348;19;20014;-77
2023/12/06 03:37:45;;;;;;;12.90;9.88;;;19.40;99.90;;;;;;4612089;19;19998;-77
2023/12/06 03:39:21;;;;;;;15.18;10.38;;;19.40;99.90;;;;;;4613273;19;20017;-77
2023/12/06 03:40:55;;;;;;;11.27;9.90;;;19.40;99.90;;;;;;4614525;19;20312;-77
2023/12/06 03:42:30;;;;;;;14.02;10.63;;;19.40;99.90;;;;;;4614538;19;19998;-77
2023/12/06 03:44:06;;;;;;;18.35;10.70;;;19.40;99.90;;;;;;4614465;19;20073;-77
2023/12/06 03:45:42;;;;;;;13.77;9.77;;;19.30;99.90;;;;;;4614195;19;20428;-77
2023/12/06 03:47:19;;;;;;;13.23;10.20;;;19.20;99.90;;;;;;4614235;19;20057;-77
2023/12/06 03:48:54;;;;;;;14.05;12.05;;;19.20;99.90;;;;;;4613719;19;20025;-77
2023/12/06 03:50:30;;;;;;;13.48;10.30;;;19.20;99.90;;;;;;4612766;19;20002;-77
2023/12/06 03:52:05;;;;;;;13.90;10.10;;;19.10;99.90;;;;;;4613956;19;20010;-78
2023/12/06 03:53:40;;;;;;;11.60;9.38;;;19.10;99.90;;;;;;4612768;19;20002;-77
2023/12/06 03:55:14;;;;;;;11.07;9.00;;;19.00;99.90;;;;;;4613547;19;20002;-78
2023/12/06 03:56:48;;;;;;;13.57;9.63;;;19.00;99.90;;;;;;4613911;19;20005;-78
2023/12/06 03:58:24;;;;;;;13.02;9.52;;;18.90;99.90;;;;;;4612711;19;20480;-78
2023/12/06 03:59:59;;;;;;;13.10;10.50;;;18.90;99.90;;;;;;4610655;19;20436;-77
2023/12/06 04:01:33;;;;;;;15.40;10.52;;;18.80;99.90;;;;;;4613709;19;20421;-77
2023/12/06 04:03:08;;;;;;;14.65;9.80;;;18.80;99.90;;;;;;4613812;19;20010;-77
2023/12/06 04:04:44;;;;;;;14.73;10.27;;;18.70;99.90;;;;;;4613716;19;20040;-77
2023/12/06 04:06:19;;;;;;;13.93;9.65;;;18.70;99.90;;;;;;4613863;19;20409;-78
2023/12/06 04:07:56;;;;;;;12.07;10.10;;;18.60;99.90;;;;;;4614095;19;20006;-77
2023/12/06 04:09:30;;;;;;;12.98;9.75;;;18.60;99.90;;;;;;4612523;19;20002;-76
2023/12/06 04:11:05;;;;;;;11.27;9.80;;;18.50;99.90;;;;;;4613525;19;20028;-77
2023/12/06 04:12:40;;;;;;;13.23;9.70;;;18.50;99.90;;;;;;4613602;19;20321;-76
2023/12/06 04:14:14;;;;;;;12.70;9.90;;;18.40;99.90;;;;;;4613870;19;20435;-77
2023/12/06 04:15:48;;;;;;;11.80;9.93;;;18.40;99.90;;;;;;4613829;19;20040;-77
2023/12/06 04:17:23;;;;;;;14.50;9.30;;;18.40;99.90;;;;;;4612808;19;20006;-76
2023/12/06 04:18:58;;;;;;;11.20;9.07;;;18.50;99.90;;;;;;4613266;19;20010;-77
2023/12/06 04:20:34;;;;;;;11.65;8.30;;;18.50;99.90;;;;;;4613312;19;20031;-77
2023/12/06 04:22:09;;;;;;;12.40;8.32;;;18.70;99.90;;;;;;4612104;19;20326;-77
2023/12/06 04:23:44;;;;;;;11.57;8.65;;;18.80;99.90;;;;;;4613292;19;20023;-77
2023/12/06 04:25:18;;;;;;;9.80;7.90;;;18.90;99.90;;;;;;4613575;19;19998;-77
2023/12/06 04:26:54;;;;;;;9.77;7.90;;;19.00;99.90;;;;;;4613341;19;20007;-77
2023/12/06 04:28:28;;;;;;;11.32;8.68;;;19.10;99.90;;;;;;4612205;19;20006;-77
2023/12/06 04:30:02;;;;;;;10.68;8.27;;;19.20;99.90;;;;;;4593815;19;20010;-77
2023/12/06 04:31:38;;;;;;;10.82;8.07;;;19.30;99.90;;;;;;4594148;19;20010;-77
2023/12/06 04:33:13;;;;;;;12.38;8.95;;;19.30;99.90;;;;;;4595061;19;20013;-76
2023/12/06 04:35:05;;;;;;;10.90;9.30;;;19.40;99.90;;;;;;4595377;19;20033;-82
2023/12/06 04:36:43;;;;;;;13.27;9.18;;;19.40;99.90;;;;;;4595424;19;20030;-77
2023/12/06 04:38:17;;;;;;;11.00;9.05;;;19.40;99.90;;;;;;4594005;19;20003;-77
2023/12/06 04:39:52;;;;;;;11.57;8.63;;;19.40;99.90;;;;;;4593874;19;20002;-77
2023/12/06 04:41:29;;;;;;;13.15;9.10;;;19.30;99.90;;;;;;4593940;19;20029;-77
2023/12/06 04:43:04;;;;;;;12.30;9.38;;;19.30;99.90;;;;;;4594928;19;19998;-77
2023/12/06 04:44:38;;;;;;;13.68;9.75;;;19.20;99.90;;;;;;4595220;19;20432;-77
2023/12/06 04:46:14;;;;;;;13.80;9.82;;;19.20;99.90;;;;;;4595182;19;20011;-77
2023/12/06 04:47:49;;;;;;;14.15;9.07;;;19.20;99.90;;;;;;4595402;19;20129;-76
2023/12/06 04:49:23;;;;;;;15.50;9.93;;;19.30;99.90;;;;;;4592749;19;20006;-77
2023/12/06 04:50:58;;;;;;;12.48;9.20;;;19.30;99.90;;;;;;4593681;19;20002;-78
2023/12/06 04:52:32;;;;;;;20.15;11.88;;;19.30;99.90;;;;;;4594673;19;19994;-75
2023/12/06 04:54:06;;;;;;;15.63;9.90;;;19.30;99.90;;;;;;4594865;19;20314;-79
2023/12/06 04:55:43;;;;;;;17.90;9.90;;;19.30;99.90;;;;;;4595084;19;20374;-75
2023/12/06 04:57:17;;;;;;;16.40;10.27;;;19.30;99.90;;;;;;4594729;19;20066;-77
2023/12/06 04:58:50;;;;;;;16.20;11.00;;;19.20;99.90;;;;;;4594530;19;20462;-77
2023/12/06 05:00:26;;;;;;;23.25;13.27;;;19.20;99.90;;;;;;4595341;19;20010;-77
2023/12/06 05:02:00;;;;;;;27.15;14.18;;;19.20;99.90;;;;;;4594838;19;19999;-77
2023/12/06 05:03:34;;;;;;;22.20;15.45;;;19.10;99.90;;;;;;4594719;19;20011;-78
2023/12/06 05:05:09;;;;;;;26.30;18.10;;;19.10;99.90;;;;;;4594805;19;20007;-78
2023/12/06 05:06:43;;;;;;;29.23;19.70;;;19.00;99.90;;;;;;4594648;19;20011;-76
2023/12/06 05:08:17;;;;;;;25.60;18.92;;;19.00;99.90;;;;;;4594953;19;20077;-77
2023/12/06 05:09:55;;;;;;;27.80;19.75;;;18.90;99.90;;;;;;4593632;19;20094;-76
2023/12/06 05:11:28;;;;;;;31.63;19.67;;;18.80;99.90;;;;;;4594639;19;20002;-77
2023/12/06 05:13:02;;;;;;;27.80;18.88;;;18.80;99.90;;;;;;4594797;19;20010;-81
2023/12/06 05:14:38;;;;;;;27.85;19.67;;;18.70;99.90;;;;;;4594900;19;20006;-78
2023/12/06 05:16:13;;;;;;;28.27;18.23;;;18.70;99.90;;;;;;4594537;19;20002;-77
2023/12/06 05:17:47;;;;;;;29.77;19.02;;;18.60;99.90;;;;;;4593671;19;20018;-77
2023/12/06 05:19:23;;;;;;;28.35;18.90;;;18.60;99.90;;;;;;4593599;19;20309;-77
2023/12/06 05:20:57;;;;;;;27.65;18.55;;;18.50;99.90;;;;;;4594666;19;20009;-77
2023/12/06 05:22:32;;;;;;;29.30;17.85;;;18.50;99.90;;;;;;4594311;19;20333;-77
2023/12/06 05:24:08;;;;;;;23.98;17.65;;;18.40;99.90;;;;;;4594707;19;20003;-76
2023/12/06 05:25:43;;;;;;;26.42;17.90;;;18.40;99.90;;;;;;4594316;19;20021;-76
2023/12/06 05:27:18;;;;;;;28.70;17.98;;;18.40;99.90;;;;;;4594308;19;20003;-77
2023/12/06 05:28:54;;;;;;;26.70;17.67;;;18.30;99.90;;;;;;4594169;19;20002;-77
2023/12/06 05:30:28;;;;;;;30.63;17.55;;;18.30;99.90;;;;;;4594081;19;20078;-77
2023/12/06 05:32:02;;;;;;;25.35;17.05;;;18.20;99.90;;;;;;4594405;19;20315;-77
2023/12/06 05:33:39;;;;;;;22.90;17.30;;;18.20;99.90;;;;;;4594490;19;20013;-77
2023/12/06 05:35:13;;;;;;;25.52;16.30;;;18.20;99.90;;;;;;4594056;19;20002;-77
2023/12/06 05:36:48;;;;;;;26.58;17.77;;;18.10;99.90;;;;;;4594152;19;19998;-77
2023/12/06 05:38:24;;;;;;;25.52;16.45;;;18.00;99.90;;;;;;4593051;19;20002;-77
2023/12/06 05:39:59;;;;;;;25.90;16.58;;;18.00;99.90;;;;;;4592973;19;20002;-76
2023/12/06 05:41:33;;;;;;;30.25;17.80;;;18.00;99.90;;;;;;4590400;19;20086;-76
2023/12/06 05:43:08;;;;;;;29.35;17.48;;;18.00;99.90;;;;;;4593203;19;20057;-75
2023/12/06 05:44:42;;;;;;;21.80;16.50;;;18.00;99.90;;;;;;4594021;19;20074;-75
2023/12/06 05:46:16;;;;;;;25.20;16.77;;;17.90;99.90;;;;;;4593852;19;20007;-75
2023/12/06 05:47:52;;;;;;;28.73;17.52;;;17.90;99.90;;;;;;4593799;19;20077;-75
2023/12/06 05:49:27;;;;;;;27.95;17.48;;;17.80;99.90;;;;;;4593229;19;20007;-75
2023/12/06 05:51:03;;;;;;;28.13;16.60;;;17.80;99.90;;;;;;4593794;19;20148;-75
2023/12/06 05:52:39;;;;;;;22.35;15.27;;;17.80;99.90;;;;;;4592481;19;20006;-75
2023/12/06 05:54:14;;;;;;;21.58;14.23;;;17.90;99.90;;;;;;4592343;19;20017;-74
2023/12/06 05:55:48;;;;;;;21.80;15.15;;;18.00;99.90;;;;;;4593650;19;20002;-75
2023/12/06 05:57:28;;;;;;;22.10;14.43;;;18.00;99.90;;;;;;4593544;19;20011;-75
2023/12/06 05:59:02;;;;;;;20.50;13.68;;;18.10;99.90;;;;;;4592163;19;20302;-75
2023/12/06 06:00:37;;;;;;;20.98;14.63;;;18.20;99.90;;;;;;4593471;19;20009;-75
2023/12/06 06:02:13;;;;;;;19.42;12.93;;;18.40;99.90;;;;;;4593670;19;20011;-74
2023/12/06 06:03:48;;;;;;;22.38;13.40;;;18.50;99.90;;;;;;4593826;19;20283;-74
2023/12/06 06:05:22;;;;;;;22.58;13.55;;;18.60;99.90;;;;;;4593743;19;20007;-74
2023/12/06 06:06:57;;;;;;;20.40;13.38;;;18.70;99.90;;;;;;4593514;19;20006;-74
2023/12/06 06:08:33;;;;;;;21.67;14.20;;;18.80;99.90;;;;;;4593651;19;20023;-74
2023/12/06 06:10:08;;;;;;;19.85;12.98;;;18.90;99.90;;;;;;4593398;19;19998;-75
2023/12/06 06:11:43;;;;;;;19.67;12.95;;;19.00;99.90;;;;;;4593396;19;20024;-74
2023/12/06 06:13:17;;;;;;;21.73;13.05;;;19.10;99.90;;;;;;4593305;19;20009;-74
2023/12/06 06:14:52;;;;;;;17.73;12.20;;;19.20;99.90;;;;;;4593283;19;19998;-74
2023/12/06 06:16:28;;;;;;;20.83;12.52;;;19.20;99.90;;;;;;4593330;19;19999;-74
2023/12/06 06:18:05;;;;;;;17.00;11.65;;;19.20;99.90;;;;;;4590734;19;20043;-74
2023/12/06 06:19:41;;;;;;;18.70;11.85;;;19.20;99.90;;;;;;4590955;19;20010;-74
2023/12/06 06:21:17;;;;;;;16.80;12.00;;;19.20;99.90;;;;;;4593196;19;20426;-74
2023/12/06 06:22:51;;;;;;;21.95;12.43;;;19.20;99.90;;;;;;4593018;19;20005;-74
2023/12/06 06:24:25;;;;;;;22.77;14.02;;;19.10;99.90;;;;;;4593016;19;20025;-74
2023/12/06 06:26:00;;;;;;;22.48;12.80;;;19.10;99.90;;;;;;4593171;19;20002;-74
2023/12/06 06:27:35;;;;;;;17.58;12.82;;;19.10;99.90;;;;;;4592846;19;20011;-75
2023/12/06 06:29:11;;;;;;;22.30;14.07;;;19.00;99.90;;;;;;4592616;19;20409;-75
2023/12/06 06:30:47;;;;;;;20.35;12.23;;;19.00;99.90;;;;;;4593238;19;20023;-75
2023/12/06 06:32:21;;;;;;;17.45;12.02;;;18.90;99.90;;;;;;4592886;19;19994;-75
2023/12/06 06:33:56;;;;;;;19.65;12.63;;;18.90;99.90;;;;;;4593063;19;20065;-74
2023/12/06 06:35:32;;;;;;;18.35;12.23;;;18.90;99.90;;;;;;4592878;19;20028;-74
2023/12/06 06:37:08;;;;;;;19.05;12.90;;;18.80;99.90;;;;;;4592832;19;19999;-74
2023/12/06 06:38:44;;;;;;;15.35;11.88;;;18.80;99.90;;;;;;4591853;19;20006;-74
2023/12/06 06:40:22;;;;;;;20.15;13.02;;;18.70;99.90;;;;;;4592736;19;20036;-74
2023/12/06 06:41:56;;;;;;;17.58;12.63;;;18.70;99.90;;;;;;4592762;19;20026;-74
2023/12/06 06:43:31;;;;;;;20.52;11.98;;;18.60;99.90;;;;;;4592662;19;20078;-74
2023/12/06 06:45:06;;;;;;;17.77;12.60;;;18.60;99.90;;;;;;4592953;19;20007;-74
2023/12/06 06:46:40;;;;;;;15.05;11.70;;;18.50;99.90;;;;;;4590174;19;20006;-74
2023/12/06 06:48:14;;;;;;;18.70;11.50;;;18.50;99.90;;;;;;4592190;19;20006;-74
2023/12/06 06:49:50;;;;;;;21.13;12.05;;;18.40;99.90;;;;;;4591844;19;20066;-74
2023/12/06 06:51:37;;;;;;;17.23;12.30;;;18.40;99.90;;;;;;4592723;19;20002;-75
2023/12/06 06:53:11;;;;;;;19.25;12.75;;;18.30;99.90;;;;;;4590595;19;20010;-74
2023/12/06 06:54:47;;;;;;;20.50;12.52;;;18.20;99.90;;;;;;4592192;19;20436;-75
2023/12/06 06:56:22;;;;;;;17.17;11.30;;;18.20;99.90;;;;;;4592425;19;20002;-74
2023/12/06 06:58:03;;;;;;;17.63;11.85;;;18.20;99.90;;;;;;4592109;19;20002;-75
2023/12/06 06:59:40;;;;;;;15.68;11.07;;;18.10;99.90;;;;;;4590539;19;20033;-75
2023/12/06 07:01:15;;;;;;;16.77;12.35;;;18.10;99.90;;;;;;4590979;19;20013;-75
2023/12/06 07:02:50;;;;;;;17.17;12.20;;;18.00;99.90;;;;;;4592273;19;19998;-74
2023/12/06 07:04:25;;;;;;;17.33;11.40;;;18.00;99.90;;;;;;4592535;19;20428;-75
2023/12/06 07:06:01;;;;;;;16.05;11.18;;;18.00;99.90;;;;;;4592481;19;20006;-75
2023/12/06 07:07:35;;;;;;;13.68;10.60;;;17.90;99.90;;;;;;4592505;19;20332;-75
2023/12/06 07:09:11;;;;;;;13.45;9.65;;;17.90;99.90;;;;;;4592385;19;20283;-75
2023/12/06 07:10:47;;;;;;;14.25;11.18;;;17.90;99.90;;;;;;4592143;19;20003;-74
2023/12/06 07:12:21;;;;;;;18.27;10.35;;;17.90;99.90;;;;;;4592238;19;19998;-74
2023/12/06 07:13:58;;;;;;;15.68;10.43;;;17.90;99.90;;;;;;4592388;19;20017;-75
2023/12/06 07:15:33;;;;;;;17.73;11.65;;;17.80;99.90;;;;;;4592941;19;20017;-78
2023/12/06 07:17:08;;;;;;;14.95;10.43;;;17.80;99.90;;;;;;4591630;19;20287;-80
2023/12/06 07:18:44;;;;;;;13.23;9.95;;;17.80;99.90;;;;;;4589901;19;20010;-76
2023/12/06 07:20:18;;;;;;;15.23;11.27;;;17.80;99.90;;;;;;4592051;19;20010;-74
2023/12/06 07:21:52;;;;;;;15.27;10.65;;;17.80;99.90;;;;;;4592198;19;20020;-75
2023/12/06 07:23:28;;;;;;;19.65;11.70;;;17.70;99.90;;;;;;4592260;19;20027;-75
2023/12/06 07:25:03;;;;;;;14.90;10.30;;;17.70;99.90;;;;;;4592754;19;20030;-75
2023/12/06 07:26:37;;;;;;;13.45;11.20;;;17.70;99.90;;;;;;4591929;19;20314;-76
2023/12/06 07:28:13;;;;;;;14.05;10.60;;;17.70;99.90;;;;;;4592196;19;20014;-77
2023/12/06 07:29:47;;;;;;;12.18;10.00;;;17.60;99.90;;;;;;4590856;19;20457;-77
2023/12/06 07:31:21;;;;;;;12.88;9.75;;;17.60;99.90;;;;;;4591787;19;20360;-78
2023/12/06 07:32:57;;;;;;;14.80;10.32;;;17.60;99.90;;;;;;4590519;19;20073;-81
2023/12/06 07:34:30;;;;;;;14.70;10.93;;;17.50;99.90;;;;;;4591363;19;20294;-76
2023/12/06 07:36:07;;;;;;;14.98;11.20;;;17.50;99.90;;;;;;4592007;19;20037;-77
2023/12/06 07:37:43;;;;;;;17.65;10.75;;;17.50;99.90;;;;;;4591336;19;20007;-78
2023/12/06 07:39:18;;;;;;;12.13;10.00;;;17.40;99.90;;;;;;4591038;19;20014;-78
2023/12/06 07:40:52;;;;;;;16.27;10.45;;;17.50;99.90;;;;;;4592182;19;20006;-78
2023/12/06 07:42:28;;;;;;;14.25;9.18;;;17.40;99.90;;;;;;4592042;19;20082;-73
2023/12/06 07:44:03;;;;;;;13.35;9.85;;;17.40;99.90;;;;;;4591866;19;20002;-73
2023/12/06 07:45:37;;;;;;;15.73;10.32;;;17.40;99.90;;;;;;4591549;19;20002;-74
2023/12/06 07:47:15;;;;;;;15.90;10.60;;;17.30;99.90;;;;;;4591648;19;20349;-73
2023/12/06 07:48:50;;;;;;;16.23;10.70;;;17.30;99.90;;;;;;4589904;19;20017;-74
2023/12/06 07:50:25;;;;;;;14.30;10.73;;;17.30;99.90;;;;;;4591177;19;20073;-72
2023/12/06 07:52:00;;;;;;;14.25;9.60;;;17.30;99.90;;;;;;4591768;19;20014;-73
2023/12/06 07:53:34;;;;;;;12.38;9.30;;;17.30;99.90;;;;;;4591710;19;20005;-75
2023/12/06 07:55:09;;;;;;;14.07;10.25;;;17.20;99.90;;;;;;4591367;19;20007;-75
2023/12/06 07:56:46;;;;;;;13.32;10.05;;;17.20;99.90;;;;;;4591757;19;20003;-77
2023/12/06 07:58:21;;;;;;;12.90;9.68;;;17.20;99.90;;;;;;4590531;19;20033;-75
2023/12/06 07:59:58;;;;;;;15.20;10.80;;;17.20;99.90;;;;;;4590018;19;20014;-76
2023/12/06 08:01:33;;;;;;;13.32;9.93;;;17.10;99.90;;;;;;4591332;19;20028;-76
2023/12/06 08:03:08;;;;;;;13.73;10.68;;;17.10;99.90;;;;;;4591523;19;19999;-74
2023/12/06 08:04:42;;;;;;;14.75;10.25;;;17.10;99.90;;;;;;4593062;19;20007;-74
2023/12/06 08:06:18;;;;;;;15.68;10.02;;;17.10;99.90;;;;;;4596054;19;20020;-78
2023/12/06 08:07:52;;;;;;;11.85;9.57;;;17.10;99.90;;;;;;4594548;19;20002;-76
2023/12/06 08:09:27;;;;;;;13.85;10.02;;;17.00;99.90;;;;;;4594653;19;20009;-74
2023/12/06 08:11:02;;;;;;;14.00;9.43;;;17.00;99.90;;;;;;4595742;19;20010;-77
2023/12/06 08:12:37;;;;;;;13.25;9.60;;;17.00;99.90;;;;;;4594720;19;20334;-77
2023/12/06 08:14:11;;;;;;;14.73;10.15;;;17.00;99.90;;;;;;4594295;19;20038;-76
2023/12/06 08:15:46;;;;;;;14.82;11.05;;;17.00;99.90;;;;;;4595691;19;20009;-76
2023/12/06 08:17:21;;;;;;;17.83;10.68;;;16.90;99.90;;;;;;4595146;19;20002;-76
2023/12/06 08:18:55;;;;;;;13.48;10.23;;;16.90;99.90;;;;;;4595318;19;20015;-76
2023/12/06 08:20:30;;;;;;;15.45;10.02;;;16.90;99.90;;;;;;4596143;19;20433;-76
2023/12/06 08:22:04;;;;;;;14.55;10.80;;;16.90;99.90;;;;;;4595588;19;20002;-76